sensor_id;sensor_type;location;lat;lon;timestamp;pressure;altitude;pressure_sealevel;temperature;humidity
48964;BME280;34776;48.180;16.420;2023-02-21T00:01:53;99877.06;;;11.99;47.21
48964;BME280;34776;48.180;16.420;2023-02-21T00:04:37;99872.59;;;12.00;47.18
48964;BME280;34776;48.180;16.420;2023-02-21T00:07:21;99877.91;;;12.00;47.25
48964;BME280;34776;48.180;16.420;2023-02-21T00:10:07;99874.47;;;11.97;47.51
48964;BME280;34776;48.180;16.420;2023-02-21T00:12:51;99878.59;;;12.03;47.00
48964;BME280;34776;48.180;16.420;2023-02-21T00:15:35;99881.63;;;11.97;47.34
48964;BME280;34776;48.180;16.420;2023-02-21T00:18:20;99871.44;;;11.88;47.60
48964;BME280;34776;48.180;16.420;2023-02-21T00:21:04;99876.06;;;11.84;48.08
48964;BME280;34776;48.180;16.420;2023-02-21T00:23:48;99880.59;;;11.82;48.08
48964;BME280;34776;48.180;16.420;2023-02-21T00:26:32;99871.88;;;11.80;48.23
48964;BME280;34776;48.180;16.420;2023-02-21T00:29:16;99871.00;;;11.79;48.33
48964;BME280;34776;48.180;16.420;2023-02-21T00:32:00;99879.25;;;11.75;48.61
48964;BME280;34776;48.180;16.420;2023-02-21T00:34:44;99868.78;;;11.72;48.76
48964;BME280;34776;48.180;16.420;2023-02-21T00:37:28;99858.47;;;11.66;48.89
48964;BME280;34776;48.180;16.420;2023-02-21T00:40:14;99868.34;;;11.64;48.99
48964;BME280;34776;48.180;16.420;2023-02-21T00:42:58;99868.41;;;11.62;49.10
48964;BME280;34776;48.180;16.420;2023-02-21T00:45:42;99871.16;;;11.61;49.13
48964;BME280;34776;48.180;16.420;2023-02-21T00:48:26;99870.22;;;11.62;49.31
48964;BME280;34776;48.180;16.420;2023-02-21T00:51:10;99858.69;;;11.61;49.33
48964;BME280;34776;48.180;16.420;2023-02-21T00:53:54;99874.59;;;11.63;49.31
48964;BME280;34776;48.180;16.420;2023-02-21T00:56:39;99871.34;;;11.57;49.31
48964;BME280;34776;48.180;16.420;2023-02-21T00:59:23;99874.25;;;11.53;49.50
48964;BME280;34776;48.180;16.420;2023-02-21T01:02:07;99878.78;;;11.51;49.61
48964;BME280;34776;48.180;16.420;2023-02-21T01:04:51;99873.38;;;11.52;49.51
48964;BME280;34776;48.180;16.420;2023-02-21T01:07:35;99875.09;;;11.53;49.10
48964;BME280;34776;48.180;16.420;2023-02-21T01:10:19;99871.66;;;11.51;49.40
48964;BME280;34776;48.180;16.420;2023-02-21T01:13:04;99870.88;;;11.49;49.43
48964;BME280;34776;48.180;16.420;2023-02-21T01:15:48;99871.66;;;11.51;49.17
48964;BME280;34776;48.180;16.420;2023-02-21T01:18:32;99866.00;;;11.57;49.14
48964;BME280;34776;48.180;16.420;2023-02-21T01:21:17;99864.28;;;11.56;49.22
48964;BME280;34776;48.180;16.420;2023-02-21T01:24:02;99859.13;;;11.53;49.18
48964;BME280;34776;48.180;16.420;2023-02-21T01:26:46;99859.28;;;11.50;49.56
48964;BME280;34776;48.180;16.420;2023-02-21T01:29:30;99854.22;;;11.46;49.43
48964;BME280;34776;48.180;16.420;2023-02-21T01:32:14;99858.06;;;11.40;49.76
48964;BME280;34776;48.180;16.420;2023-02-21T01:34:58;99859.19;;;11.36;49.59
48964;BME280;34776;48.180;16.420;2023-02-21T01:37:42;99863.03;;;11.30;50.02
48964;BME280;34776;48.180;16.420;2023-02-21T01:40:26;99871.34;;;11.24;50.04
48964;BME280;34776;48.180;16.420;2023-02-21T01:43:19;99861.88;;;11.18;50.05
48964;BME280;34776;48.180;16.420;2023-02-21T01:46:04;99859.28;;;11.17;50.12
48964;BME280;34776;48.180;16.420;2023-02-21T01:48:50;99861.28;;;11.13;50.20
48964;BME280;34776;48.180;16.420;2023-02-21T01:51:39;99857.84;;;11.11;50.28
48964;BME280;34776;48.180;16.420;2023-02-21T01:54:27;99870.50;;;11.06;50.43
48964;BME280;34776;48.180;16.420;2023-02-21T01:57:13;99843.91;;;11.06;50.55
48964;BME280;34776;48.180;16.420;2023-02-21T01:59:59;99849.41;;;11.03;50.31
48964;BME280;34776;48.180;16.420;2023-02-21T02:02:53;99847.78;;;11.01;50.49
48964;BME280;34776;48.180;16.420;2023-02-21T02:05:42;99848.56;;;11.03;50.23
48964;BME280;34776;48.180;16.420;2023-02-21T02:08:29;99853.00;;;11.02;50.42
48964;BME280;34776;48.180;16.420;2023-02-21T02:38:40;99852.38;;;10.97;49.79
48964;BME280;34776;48.180;16.420;2023-02-21T02:41:34;99840.66;;;11.01;49.52
48964;BME280;34776;48.180;16.420;2023-02-21T02:46:40;99851.88;;;11.06;49.77
48964;BME280;34776;48.180;16.420;2023-02-21T02:49:17;99824.53;;;11.04;49.55
48964;BME280;34776;48.180;16.420;2023-02-21T02:51:43;99820.94;;;11.05;49.86
48964;BME280;34776;48.180;16.420;2023-02-21T02:54:09;99822.75;;;11.05;49.72
48964;BME280;34776;48.180;16.420;2023-02-21T02:56:34;99814.06;;;11.01;49.83
48964;BME280;34776;48.180;16.420;2023-02-21T02:59:11;99813.03;;;11.04;49.50
48964;BME280;34776;48.180;16.420;2023-02-21T03:04:36;99811.16;;;11.06;49.30
48964;BME280;34776;48.180;16.420;2023-02-21T03:12:43;99801.69;;;11.00;48.83
48964;BME280;34776;48.180;16.420;2023-02-21T03:15:20;99800.69;;;11.03;49.55
48964;BME280;34776;48.180;16.420;2023-02-21T03:20:36;99800.00;;;10.99;49.63
48964;BME280;34776;48.180;16.420;2023-02-21T03:23:03;99805.31;;;10.99;49.34
48964;BME280;34776;48.180;16.420;2023-02-21T03:25:30;99793.91;;;10.97;49.33
48964;BME280;34776;48.180;16.420;2023-02-21T03:27:59;99800.13;;;10.96;49.36
48964;BME280;34776;48.180;16.420;2023-02-21T03:30:25;99798.50;;;10.93;49.30
48964;BME280;34776;48.180;16.420;2023-02-21T03:32:52;99807.50;;;10.91;49.49
48964;BME280;34776;48.180;16.420;2023-02-21T03:35:20;99818.31;;;10.88;49.47
48964;BME280;34776;48.180;16.420;2023-02-21T03:37:48;99798.94;;;10.86;49.77
48964;BME280;34776;48.180;16.420;2023-02-21T03:40:22;99802.69;;;10.82;49.58
48964;BME280;34776;48.180;16.420;2023-02-21T03:42:49;99795.63;;;10.81;49.71
48964;BME280;34776;48.180;16.420;2023-02-21T03:45:15;99801.81;;;10.81;49.58
48964;BME280;34776;48.180;16.420;2023-02-21T03:47:40;99795.63;;;10.81;49.76
48964;BME280;34776;48.180;16.420;2023-02-21T03:50:06;99801.13;;;10.77;49.61
48964;BME280;34776;48.180;16.420;2023-02-21T03:52:32;99803.94;;;10.74;49.85
48964;BME280;34776;48.180;16.420;2023-02-21T03:54:57;99816.53;;;10.71;49.82
48964;BME280;34776;48.180;16.420;2023-02-21T03:57:23;99802.47;;;10.69;49.78
48964;BME280;34776;48.180;16.420;2023-02-21T03:59:48;99801.59;;;10.68;49.89
48964;BME280;34776;48.180;16.420;2023-02-21T04:02:13;99793.63;;;10.68;49.87
48964;BME280;34776;48.180;16.420;2023-02-21T04:04:39;99801.59;;;10.68;49.73
48964;BME280;34776;48.180;16.420;2023-02-21T04:07:04;99807.94;;;10.66;49.91
48964;BME280;34776;48.180;16.420;2023-02-21T04:09:30;99808.78;;;10.66;49.91
48964;BME280;34776;48.180;16.420;2023-02-21T04:11:55;99800.03;;;10.64;49.88
48964;BME280;34776;48.180;16.420;2023-02-21T04:14:21;99810.75;;;10.63;49.75
48964;BME280;34776;48.180;16.420;2023-02-21T04:16:47;99812.53;;;10.62;49.92
48964;BME280;34776;48.180;16.420;2023-02-21T04:19:12;99810.84;;;10.61;50.02
48964;BME280;34776;48.180;16.420;2023-02-21T04:21:37;99810.06;;;10.59;49.94
48964;BME280;34776;48.180;16.420;2023-02-21T04:24:03;99809.28;;;10.57;50.04
48964;BME280;34776;48.180;16.420;2023-02-21T04:26:28;99809.28;;;10.57;49.93
48964;BME280;34776;48.180;16.420;2023-02-21T04:28:54;99803.78;;;10.60;49.93
48964;BME280;34776;48.180;16.420;2023-02-21T04:31:20;99800.28;;;10.60;50.42
48964;BME280;34776;48.180;16.420;2023-02-21T04:33:46;99796.91;;;10.56;50.03
48964;BME280;34776;48.180;16.420;2023-02-21T04:36:11;99805.06;;;10.53;50.09
48964;BME280;34776;48.180;16.420;2023-02-21T04:38:37;99805.97;;;10.52;50.38
48964;BME280;34776;48.180;16.420;2023-02-21T04:41:03;99799.91;;;10.50;50.30
48964;BME280;34776;48.180;16.420;2023-02-21T04:43:28;99799.13;;;10.48;50.35
48964;BME280;34776;48.180;16.420;2023-02-21T04:45:54;99801.00;;;10.46;50.49
48964;BME280;34776;48.180;16.420;2023-02-21T04:48:19;99809.88;;;10.45;50.56
48964;BME280;34776;48.180;16.420;2023-02-21T04:50:45;99805.59;;;10.42;50.71
48964;BME280;34776;48.180;16.420;2023-02-21T04:53:10;99804.88;;;10.39;50.76
48964;BME280;34776;48.180;16.420;2023-02-21T04:55:36;99804.19;;;10.35;50.68
48964;BME280;34776;48.180;16.420;2023-02-21T04:58:01;99805.97;;;10.34;50.85
48964;BME280;34776;48.180;16.420;2023-02-21T05:00:26;99802.31;;;10.37;50.72
48964;BME280;34776;48.180;16.420;2023-02-21T05:02:52;99811.22;;;10.36;51.00
48964;BME280;34776;48.180;16.420;2023-02-21T05:05:18;99809.66;;;10.32;51.14
48964;BME280;34776;48.180;16.420;2023-02-21T05:07:43;99816.00;;;10.29;51.21
48964;BME280;34776;48.180;16.420;2023-02-21T05:10:09;99810.78;;;10.26;51.21
48964;BME280;34776;48.180;16.420;2023-02-21T05:12:36;99807.22;;;10.27;51.42
48964;BME280;34776;48.180;16.420;2023-02-21T05:15:04;99809.06;;;10.25;51.19
48964;BME280;34776;48.180;16.420;2023-02-21T05:17:30;99818.84;;;10.25;51.53
48964;BME280;34776;48.180;16.420;2023-02-21T05:19:55;99815.31;;;10.24;51.55
48964;BME280;34776;48.180;16.420;2023-02-21T05:22:21;99815.47;;;10.21;51.49
48964;BME280;34776;48.180;16.420;2023-02-21T05:24:47;99814.75;;;10.18;51.63
48964;BME280;34776;48.180;16.420;2023-02-21T05:27:17;99818.44;;;10.15;51.64
48964;BME280;34776;48.180;16.420;2023-02-21T05:29:50;99808.66;;;10.15;51.72
48964;BME280;34776;48.180;16.420;2023-02-21T05:32:17;99798.91;;;10.16;51.72
48964;BME280;34776;48.180;16.420;2023-02-21T05:34:42;99814.81;;;10.16;51.40
48964;BME280;34776;48.180;16.420;2023-02-21T05:37:18;99813.13;;;10.15;51.64
48964;BME280;34776;48.180;16.420;2023-02-21T05:39:46;99806.88;;;10.16;51.87
48964;BME280;34776;48.180;16.420;2023-02-21T05:42:11;99797.03;;;10.18;51.66
48964;BME280;34776;48.180;16.420;2023-02-21T05:44:36;99782.81;;;10.19;51.58
48964;BME280;34776;48.180;16.420;2023-02-21T05:47:02;99802.19;;;10.21;51.47
48964;BME280;34776;48.180;16.420;2023-02-21T05:49:27;99780.00;;;10.22;51.41
48964;BME280;34776;48.180;16.420;2023-02-21T05:51:53;99779.94;;;10.24;51.51
48964;BME280;34776;48.180;16.420;2023-02-21T05:54:20;99782.66;;;10.22;51.38
48964;BME280;34776;48.180;16.420;2023-02-21T05:56:47;99793.16;;;10.25;51.58
48964;BME280;34776;48.180;16.420;2023-02-21T05:59:14;99789.53;;;10.26;51.46
48964;BME280;34776;48.180;16.420;2023-02-21T06:01:41;99792.19;;;10.26;51.42
48964;BME280;34776;48.180;16.420;2023-02-21T06:04:06;99789.34;;;10.31;51.42
48964;BME280;34776;48.180;16.420;2023-02-21T06:06:33;99782.06;;;10.34;51.31
48964;BME280;34776;48.180;16.420;2023-02-21T06:08:58;99780.13;;;10.38;51.23
48964;BME280;34776;48.180;16.420;2023-02-21T06:11:30;99777.41;;;10.40;51.18
48964;BME280;34776;48.180;16.420;2023-02-21T06:13:58;99788.63;;;10.45;51.13
48964;BME280;34776;48.180;16.420;2023-02-21T06:16:24;99787.72;;;10.46;51.16
48964;BME280;34776;48.180;16.420;2023-02-21T06:18:51;99797.41;;;10.47;50.97
48964;BME280;34776;48.180;16.420;2023-02-21T06:21:16;99806.13;;;10.49;51.00
48964;BME280;34776;48.180;16.420;2023-02-21T06:23:42;99796.38;;;10.49;50.99
48964;BME280;34776;48.180;16.420;2023-02-21T06:26:07;99812.16;;;10.52;50.95
48964;BME280;34776;48.180;16.420;2023-02-21T06:28:32;99822.88;;;10.51;51.14
48964;BME280;34776;48.180;16.420;2023-02-21T06:30:58;99817.63;;;10.49;51.23
48964;BME280;34776;48.180;16.420;2023-02-21T06:33:24;99816.78;;;10.49;51.31
48964;BME280;34776;48.180;16.420;2023-02-21T06:35:49;99825.69;;;10.48;51.09
48964;BME280;34776;48.180;16.420;2023-02-21T06:38:14;99807.00;;;10.49;51.29
48964;BME280;34776;48.180;16.420;2023-02-21T06:40:40;99823.81;;;10.50;51.18
48964;BME280;34776;48.180;16.420;2023-02-21T06:43:06;99827.41;;;10.49;51.19
48964;BME280;34776;48.180;16.420;2023-02-21T06:45:31;99832.72;;;10.49;51.12
48964;BME280;34776;48.180;16.420;2023-02-21T06:47:56;99847.72;;;10.50;51.30
48964;BME280;34776;48.180;16.420;2023-02-21T06:50:22;99837.84;;;10.52;51.38
48964;BME280;34776;48.180;16.420;2023-02-21T06:52:47;99844.06;;;10.52;51.39
48964;BME280;34776;48.180;16.420;2023-02-21T06:55:13;99842.25;;;10.53;51.42
48964;BME280;34776;48.180;16.420;2023-02-21T06:57:38;99846.59;;;10.54;51.26
48964;BME280;34776;48.180;16.420;2023-02-21T07:00:04;99863.44;;;10.54;51.35
48964;BME280;34776;48.180;16.420;2023-02-21T07:02:30;99859.81;;;10.55;51.35
48964;BME280;34776;48.180;16.420;2023-02-21T07:04:55;99864.28;;;10.55;51.47
48964;BME280;34776;48.180;16.420;2023-02-21T07:07:21;99864.28;;;10.55;51.32
48964;BME280;34776;48.180;16.420;2023-02-21T07:09:46;99872.19;;;10.56;51.35
48964;BME280;34776;48.180;16.420;2023-02-21T07:12:11;99871.22;;;10.57;51.53
48964;BME280;34776;48.180;16.420;2023-02-21T07:14:37;99869.34;;;10.60;51.49
48964;BME280;34776;48.180;16.420;2023-02-21T07:17:02;99874.75;;;10.58;51.57
48964;BME280;34776;48.180;16.420;2023-02-21T07:19:27;99879.91;;;10.61;51.71
48964;BME280;34776;48.180;16.420;2023-02-21T07:21:53;99880.78;;;10.62;51.79
48964;BME280;34776;48.180;16.420;2023-02-21T07:24:18;99883.19;;;10.66;51.53
48964;BME280;34776;48.180;16.420;2023-02-21T07:26:44;99875.22;;;10.66;51.56
48964;BME280;34776;48.180;16.420;2023-02-21T07:29:09;99872.25;;;10.72;51.77
48964;BME280;34776;48.180;16.420;2023-02-21T07:31:34;99883.34;;;10.81;51.54
48964;BME280;34776;48.180;16.420;2023-02-21T07:34:00;99888.34;;;10.87;51.55
48964;BME280;34776;48.180;16.420;2023-02-21T07:36:25;99887.25;;;10.91;51.32
48964;BME280;34776;48.180;16.420;2023-02-21T07:38:51;99876.31;;;10.97;51.42
48964;BME280;34776;48.180;16.420;2023-02-21T07:41:16;99877.88;;;11.01;51.14
48964;BME280;34776;48.180;16.420;2023-02-21T07:43:42;99877.47;;;11.09;51.30
48964;BME280;34776;48.180;16.420;2023-02-21T07:46:09;99877.06;;;11.16;50.93
48964;BME280;34776;48.180;16.420;2023-02-21T07:48:35;99892.69;;;11.23;51.24
48964;BME280;34776;48.180;16.420;2023-02-21T07:51:01;99871.88;;;11.31;50.96
48964;BME280;34776;48.180;16.420;2023-02-21T07:53:26;99878.69;;;11.36;50.66
48964;BME280;34776;48.180;16.420;2023-02-21T07:58:40;99872.91;;;12.25;49.90
48964;BME280;34776;48.180;16.420;2023-02-21T08:01:06;99855.25;;;13.71;47.85
48964;BME280;34776;48.180;16.420;2023-02-21T08:03:32;99863.94;;;15.86;44.82
48964;BME280;34776;48.180;16.420;2023-02-21T08:05:58;99853.25;;;18.50;39.88
48964;BME280;34776;48.180;16.420;2023-02-21T08:08:24;99877.88;;;18.77;38.82
48964;BME280;34776;48.180;16.420;2023-02-21T08:10:50;99877.91;;;19.19;37.99
48964;BME280;34776;48.180;16.420;2023-02-21T08:13:15;99881.63;;;19.49;37.59
48964;BME280;34776;48.180;16.420;2023-02-21T08:15:40;99890.47;;;20.52;36.56
48964;BME280;34776;48.180;16.420;2023-02-21T08:20:41;99893.16;;;22.32;33.48
48964;BME280;34776;48.180;16.420;2023-02-21T08:25:41;99886.38;;;24.04;30.85
48964;BME280;34776;48.180;16.420;2023-02-21T08:38:45;99868.28;;;23.87;29.79
48964;BME280;34776;48.180;16.420;2023-02-21T08:52:35;99888.84;;;25.63;26.36
48964;BME280;34776;48.180;16.420;2023-02-21T08:55:01;99893.78;;;26.16;27.68
48964;BME280;34776;48.180;16.420;2023-02-21T08:57:26;99899.75;;;26.11;27.51
48964;BME280;34776;48.180;16.420;2023-02-21T09:02:40;99914.22;;;27.20;26.32
48964;BME280;34776;48.180;16.420;2023-02-21T09:05:07;99914.78;;;27.53;26.32
48964;BME280;34776;48.180;16.420;2023-02-21T09:07:33;99915.69;;;27.46;26.30
48964;BME280;34776;48.180;16.420;2023-02-21T09:10:00;99920.00;;;27.93;26.42
48964;BME280;34776;48.180;16.420;2023-02-21T09:12:25;99922.06;;;27.91;25.91
48964;BME280;34776;48.180;16.420;2023-02-21T09:14:50;99925.63;;;26.78;26.53
48964;BME280;34776;48.180;16.420;2023-02-21T09:17:16;99925.69;;;26.38;27.83
48964;BME280;34776;48.180;16.420;2023-02-21T09:19:41;99913.44;;;26.34;27.13
48964;BME280;34776;48.180;16.420;2023-02-21T09:22:08;99921.50;;;25.63;27.93
48964;BME280;34776;48.180;16.420;2023-02-21T09:24:33;99925.94;;;25.07;28.24
48964;BME280;34776;48.180;16.420;2023-02-21T09:26:59;99924.41;;;24.80;28.53
48964;BME280;34776;48.180;16.420;2023-02-21T09:37:54;99926.84;;;22.65;31.18
48964;BME280;34776;48.180;16.420;2023-02-21T09:51:59;99916.75;;;19.68;34.40
48964;BME280;34776;48.180;16.420;2023-02-21T09:54:31;99934.19;;;19.01;34.97
48964;BME280;34776;48.180;16.420;2023-02-21T10:22:13;99912.63;;;17.24;38.25
48964;BME280;34776;48.180;16.420;2023-02-21T10:27:37;99906.66;;;17.32;38.35
48964;BME280;34776;48.180;16.420;2023-02-21T10:30:06;99909.84;;;17.37;38.48
48964;BME280;34776;48.180;16.420;2023-02-21T10:32:35;99907.91;;;17.39;38.18
48964;BME280;34776;48.180;16.420;2023-02-21T10:35:00;99904.75;;;17.45;38.00
48964;BME280;34776;48.180;16.420;2023-02-21T10:37:38;99902.78;;;17.58;37.78
48964;BME280;34776;48.180;16.420;2023-02-21T10:40:26;99905.94;;;17.63;37.63
48964;BME280;34776;48.180;16.420;2023-02-21T10:42:59;99901.81;;;17.71;37.83
48964;BME280;34776;48.180;16.420;2023-02-21T10:45:32;99894.59;;;17.71;38.01
48964;BME280;34776;48.180;16.420;2023-02-21T10:48:06;99887.28;;;17.62;37.79
48964;BME280;34776;48.180;16.420;2023-02-21T10:53:06;99881.91;;;17.62;38.37
48964;BME280;34776;48.180;16.420;2023-02-21T10:55:32;99878.84;;;17.67;38.43
48964;BME280;34776;48.180;16.420;2023-02-21T10:58:05;99891.41;;;17.77;38.40
48964;BME280;34776;48.180;16.420;2023-02-21T11:00:36;99874.44;;;17.65;37.94
48964;BME280;34776;48.180;16.420;2023-02-21T11:03:06;99865.41;;;17.55;38.53
48964;BME280;34776;48.180;16.420;2023-02-21T11:26:21;99860.28;;;17.86;38.25
48964;BME280;34776;48.180;16.420;2023-02-21T11:39:32;99857.59;;;17.52;39.46
48964;BME280;34776;48.180;16.420;2023-02-21T11:41:58;99854.16;;;17.61;39.36
48964;BME280;34776;48.180;16.420;2023-02-21T11:44:35;99858.34;;;17.43;39.22
48964;BME280;34776;48.180;16.420;2023-02-21T11:52:10;99848.81;;;17.84;39.50
48964;BME280;34776;48.180;16.420;2023-02-21T11:54:37;99847.31;;;17.80;39.48
48964;BME280;34776;48.180;16.420;2023-02-21T11:59:51;99846.13;;;17.84;39.32
48964;BME280;34776;48.180;16.420;2023-02-21T12:08:35;99854.06;;;17.52;39.36
48964;BME280;34776;48.180;16.420;2023-02-21T12:13:53;99844.63;;;17.12;40.32
48964;BME280;34776;48.180;16.420;2023-02-21T12:19:46;99831.56;;;17.19;40.40
48964;BME280;34776;48.180;16.420;2023-02-21T12:30:26;99832.81;;;17.60;39.70
48964;BME280;34776;48.180;16.420;2023-02-21T12:38:54;99811.84;;;18.09;38.96
48964;BME280;34776;48.180;16.420;2023-02-21T12:47:58;99799.75;;;18.03;39.82
48964;BME280;34776;48.180;16.420;2023-02-21T12:50:53;99800.81;;;18.12;39.14
48964;BME280;34776;48.180;16.420;2023-02-21T12:53:25;99798.13;;;18.23;39.17
48964;BME280;34776;48.180;16.420;2023-02-21T12:56:10;99797.63;;;17.85;39.26
48964;BME280;34776;48.180;16.420;2023-02-21T12:59:25;99785.25;;;17.94;39.59
48964;BME280;34776;48.180;16.420;2023-02-21T13:01:48;99780.00;;;18.25;39.31
48964;BME280;34776;48.180;16.420;2023-02-21T13:04:43;99787.28;;;18.34;38.85
48964;BME280;34776;48.180;16.420;2023-02-21T13:07:15;99778.41;;;17.90;39.57
48964;BME280;34776;48.180;16.420;2023-02-21T13:09:51;99781.72;;;17.82;39.47
48964;BME280;34776;48.180;16.420;2023-02-21T13:12:23;99774.13;;;17.76;39.80
48964;BME280;34776;48.180;16.420;2023-02-21T13:14:53;99778.53;;;17.89;39.84
48964;BME280;34776;48.180;16.420;2023-02-21T13:17:20;99774.50;;;17.94;39.85
48964;BME280;34776;48.180;16.420;2023-02-21T13:22:32;99771.34;;;17.89;39.68
48964;BME280;34776;48.180;16.420;2023-02-21T13:25:39;99776.72;;;17.67;39.99
48964;BME280;34776;48.180;16.420;2023-02-21T13:28:18;99767.50;;;17.14;40.57
48964;BME280;34776;48.180;16.420;2023-02-21T13:30:48;99753.34;;;17.01;41.03
48964;BME280;34776;48.180;16.420;2023-02-21T13:33:27;99771.88;;;16.93;40.98
48964;BME280;34776;48.180;16.420;2023-02-21T13:35:57;99771.41;;;16.99;41.20
48964;BME280;34776;48.180;16.420;2023-02-21T13:38:26;99777.00;;;16.96;41.25
48964;BME280;34776;48.180;16.420;2023-02-21T13:40:53;99768.94;;;16.84;41.67
48964;BME280;34776;48.180;16.420;2023-02-21T13:43:29;99774.31;;;16.84;41.91
48964;BME280;34776;48.180;16.420;2023-02-21T13:57:56;99775.41;;;16.47;42.92
48964;BME280;34776;48.180;16.420;2023-02-21T14:03:02;99763.50;;;16.62;42.60
48964;BME280;34776;48.180;16.420;2023-02-21T14:09:05;99756.44;;;16.61;42.82
48964;BME280;34776;48.180;16.420;2023-02-21T14:11:19;99759.06;;;16.50;43.09
48964;BME280;34776;48.180;16.420;2023-02-21T14:13:53;99753.72;;;16.50;42.85
48964;BME280;34776;48.180;16.420;2023-02-21T14:16:33;99748.13;;;16.53;43.24
48964;BME280;34776;48.180;16.420;2023-02-21T14:19:06;99748.59;;;16.47;43.49
48964;BME280;34776;48.180;16.420;2023-02-21T14:21:38;99754.38;;;16.29;43.58
48964;BME280;34776;48.180;16.420;2023-02-21T14:24:30;99742.69;;;16.30;43.58
48964;BME280;34776;48.180;16.420;2023-02-21T14:27:29;99753.63;;;16.27;43.11
48964;BME280;34776;48.180;16.420;2023-02-21T14:30:23;99754.25;;;16.31;43.60
48964;BME280;34776;48.180;16.420;2023-02-21T14:32:51;99750.38;;;16.35;43.55
48964;BME280;34776;48.180;16.420;2023-02-21T14:37:52;99747.03;;;16.20;43.88
48964;BME280;34776;48.180;16.420;2023-02-21T14:40:34;99752.56;;;16.30;44.27
48964;BME280;34776;48.180;16.420;2023-02-21T14:46:05;99747.03;;;16.20;44.34
48964;BME280;34776;48.180;16.420;2023-02-21T15:00:21;99741.50;;;15.75;45.18
48964;BME280;34776;48.180;16.420;2023-02-21T15:03:07;99748.13;;;15.69;45.00
48964;BME280;34776;48.180;16.420;2023-02-21T15:05:41;99731.19;;;15.69;45.34
48964;BME280;34776;48.180;16.420;2023-02-21T15:08:12;99737.97;;;15.61;45.33
48964;BME280;34776;48.180;16.420;2023-02-21T15:10:42;99740.56;;;15.50;45.34
48964;BME280;34776;48.180;16.420;2023-02-21T15:13:24;99734.47;;;15.48;45.52
48964;BME280;34776;48.180;16.420;2023-02-21T15:15:59;99734.47;;;15.48;45.60
48964;BME280;34776;48.180;16.420;2023-02-21T15:18:28;99740.03;;;15.45;45.81
48964;BME280;34776;48.180;16.420;2023-02-21T15:21:15;99742.00;;;15.30;45.86
48964;BME280;34776;48.180;16.420;2023-02-21T15:24:01;99729.19;;;15.22;45.89
48964;BME280;34776;48.180;16.420;2023-02-21T15:26:31;99729.41;;;15.19;45.88
48964;BME280;34776;48.180;16.420;2023-02-21T15:29:15;99727.91;;;15.15;46.20
48964;BME280;34776;48.180;16.420;2023-02-21T15:31:51;99728.16;;;15.12;46.18
48964;BME280;34776;48.180;16.420;2023-02-21T15:34:20;99730.50;;;15.04;46.56
48964;BME280;34776;48.180;16.420;2023-02-21T15:36:49;99734.38;;;15.00;46.73
48964;BME280;34776;48.180;16.420;2023-02-21T15:39:29;99734.91;;;14.92;47.10
48964;BME280;34776;48.180;16.420;2023-02-21T15:41:57;99724.00;;;14.82;47.08
48964;BME280;34776;48.180;16.420;2023-02-21T15:44:36;99735.25;;;14.75;47.48
48964;BME280;34776;48.180;16.420;2023-02-21T15:47:11;99731.16;;;14.69;47.43
48964;BME280;34776;48.180;16.420;2023-02-21T15:49:59;99734.25;;;14.63;47.75
48964;BME280;34776;48.180;16.420;2023-02-21T15:58:11;99733.88;;;14.42;48.46
48964;BME280;34776;48.180;16.420;2023-02-21T16:00:38;99730.69;;;14.37;47.99
48964;BME280;34776;48.180;16.420;2023-02-21T16:11:24;99753.06;;;14.09;48.50
48964;BME280;34776;48.180;16.420;2023-02-21T16:13:50;99744.50;;;14.04;49.23
48964;BME280;34776;48.180;16.420;2023-02-21T16:16:15;99750.94;;;14.01;48.99
48964;BME280;34776;48.180;16.420;2023-02-21T16:18:41;99752.19;;;13.95;49.59
48964;BME280;34776;48.180;16.420;2023-02-21T16:21:07;99766.69;;;13.91;49.38
48964;BME280;34776;48.180;16.420;2023-02-21T16:23:45;99758.16;;;13.86;49.65
48964;BME280;34776;48.180;16.420;2023-02-21T16:28:43;99755.13;;;13.78;50.11
48964;BME280;34776;48.180;16.420;2023-02-21T16:31:24;99751.69;;;13.76;50.71
48964;BME280;34776;48.180;16.420;2023-02-21T16:33:49;99749.97;;;13.75;50.11
48964;BME280;34776;48.180;16.420;2023-02-21T16:36:20;99749.31;;;13.71;50.29
48964;BME280;34776;48.180;16.420;2023-02-21T16:38:47;99760.09;;;13.70;50.67
48964;BME280;34776;48.180;16.420;2023-02-21T16:41:13;99754.19;;;13.65;50.75
48964;BME280;34776;48.180;16.420;2023-02-21T16:43:38;99751.63;;;13.63;50.63
48964;BME280;34776;48.180;16.420;2023-02-21T16:46:04;99758.00;;;13.60;50.83
48964;BME280;34776;48.180;16.420;2023-02-21T16:48:30;99758.00;;;13.60;51.06
48964;BME280;34776;48.180;16.420;2023-02-21T16:51:00;99765.25;;;13.58;50.99
48964;BME280;34776;48.180;16.420;2023-02-21T16:53:29;99777.66;;;13.59;51.35
48964;BME280;34776;48.180;16.420;2023-02-21T16:55:56;99787.50;;;13.59;51.37
48964;BME280;34776;48.180;16.420;2023-02-21T16:58:32;99786.81;;;13.55;51.79
48964;BME280;34776;48.180;16.420;2023-02-21T17:01:05;99790.34;;;13.56;51.42
48964;BME280;34776;48.180;16.420;2023-02-21T17:03:31;99793.88;;;13.56;51.29
48964;BME280;34776;48.180;16.420;2023-02-21T17:05:57;99805.72;;;13.52;51.65
48964;BME280;34776;48.180;16.420;2023-02-21T17:08:24;99797.91;;;13.49;51.48
48964;BME280;34776;48.180;16.420;2023-02-21T17:10:51;99801.53;;;13.48;51.71
48964;BME280;34776;48.180;16.420;2023-02-21T17:13:16;99804.97;;;13.50;51.90
48964;BME280;34776;48.180;16.420;2023-02-21T17:15:42;99808.56;;;13.49;51.94
48964;BME280;34776;48.180;16.420;2023-02-21T17:18:07;99813.91;;;13.49;51.76
48964;BME280;34776;48.180;16.420;2023-02-21T17:20:34;99813.81;;;13.51;52.09
48964;BME280;34776;48.180;16.420;2023-02-21T17:22:59;99813.53;;;13.55;51.72
48964;BME280;34776;48.180;16.420;2023-02-21T17:25:26;99806.06;;;13.60;51.76